sensor_id;sensor_type;location;lat;lon;timestamp;P1;durP1;ratioP1;P2;durP2;ratioP2
37288;SDS011;23174;49.462;11.000;2024-03-25T00:00:25;2.53;;;1.40;;
37288;SDS011;23174;49.462;11.000;2024-03-25T00:02:26;2.28;;;1.77;;
37288;SDS011;23174;49.462;11.000;2024-03-25T00:04:26;2.70;;;1.85;;
37288;SDS011;23174;49.462;11.000;2024-03-25T00:06:27;1.70;;;1.60;;
37288;SDS011;23174;49.462;11.000;2024-03-25T00:08:27;1.95;;;1.75;;
37288;SDS011;23174;49.462;11.000;2024-03-25T00:10:28;3.47;;;1.73;;
37288;SDS011;23174;49.462;11.000;2024-03-25T00:12:28;3.78;;;1.80;;
37288;SDS011;23174;49.462;11.000;2024-03-25T00:14:29;2.42;;;1.83;;
37288;SDS011;23174;49.462;11.000;2024-03-25T00:16:30;2.25;;;1.63;;
37288;SDS011;23174;49.462;11.000;2024-03-25T00:18:30;4.10;;;2.00;;
37288;SDS011;23174;49.462;11.000;2024-03-25T00:20:31;2.50;;;1.58;;
37288;SDS011;23174;49.462;11.000;2024-03-25T00:22:32;4.50;;;1.83;;
37288;SDS011;23174;49.462;11.000;2024-03-25T00:24:32;3.75;;;1.80;;
37288;SDS011;23174;49.462;11.000;2024-03-25T00:26:33;2.95;;;1.65;;
37288;SDS011;23174;49.462;11.000;2024-03-25T00:28:33;2.15;;;1.83;;
37288;SDS011;23174;49.462;11.000;2024-03-25T00:30:34;1.70;;;1.60;;
37288;SDS011;23174;49.462;11.000;2024-03-25T00:32:34;2.33;;;1.67;;
37288;SDS011;23174;49.462;11.000;2024-03-25T00:34:35;1.90;;;1.77;;
37288;SDS011;23174;49.462;11.000;2024-03-25T00:36:35;2.55;;;1.75;;
37288;SDS011;23174;49.462;11.000;2024-03-25T00:38:36;2.17;;;1.83;;
37288;SDS011;23174;49.462;11.000;2024-03-25T00:40:36;1.50;;;1.40;;
37288;SDS011;23174;49.462;11.000;2024-03-25T00:42:37;2.30;;;1.52;;
37288;SDS011;23174;49.462;11.000;2024-03-25T00:44:38;2.85;;;1.70;;
37288;SDS011;23174;49.462;11.000;2024-03-25T00:46:38;2.15;;;1.75;;
37288;SDS011;23174;49.462;11.000;2024-03-25T00:48:41;2.92;;;1.40;;
37288;SDS011;23174;49.462;11.000;2024-03-25T00:50:42;2.05;;;1.70;;
37288;SDS011;23174;49.462;11.000;2024-03-25T00:52:43;1.85;;;1.70;;
37288;SDS011;23174;49.462;11.000;2024-03-25T00:54:43;1.90;;;1.80;;
37288;SDS011;23174;49.462;11.000;2024-03-25T00:56:44;2.00;;;1.67;;
37288;SDS011;23174;49.462;11.000;2024-03-25T00:58:46;2.30;;;1.77;;
37288;SDS011;23174;49.462;11.000;2024-03-25T01:00:46;1.95;;;1.48;;
37288;SDS011;23174;49.462;11.000;2024-03-25T01:02:47;3.75;;;1.90;;
37288;SDS011;23174;49.462;11.000;2024-03-25T01:04:47;1.52;;;1.33;;
37288;SDS011;23174;49.462;11.000;2024-03-25T01:06:48;4.22;;;1.70;;
37288;SDS011;23174;49.462;11.000;2024-03-25T01:08:49;5.32;;;1.80;;
37288;SDS011;23174;49.462;11.000;2024-03-25T01:10:50;3.38;;;1.70;;
37288;SDS011;23174;49.462;11.000;2024-03-25T01:12:50;1.73;;;1.55;;
37288;SDS011;23174;49.462;11.000;2024-03-25T01:14:51;1.92;;;1.70;;
37288;SDS011;23174;49.462;11.000;2024-03-25T01:16:52;2.58;;;1.48;;
37288;SDS011;23174;49.462;11.000;2024-03-25T01:18:53;3.05;;;1.70;;
37288;SDS011;23174;49.462;11.000;2024-03-25T01:20:53;3.33;;;2.00;;
37288;SDS011;23174;49.462;11.000;2024-03-25T01:22:54;4.22;;;2.00;;
37288;SDS011;23174;49.462;11.000;2024-03-25T01:24:55;3.03;;;1.67;;
37288;SDS011;23174;49.462;11.000;2024-03-25T01:26:55;5.93;;;2.00;;
37288;SDS011;23174;49.462;11.000;2024-03-25T01:28:56;6.07;;;2.10;;
37288;SDS011;23174;49.462;11.000;2024-03-25T01:30:56;5.15;;;1.80;;
37288;SDS011;23174;49.462;11.000;2024-03-25T01:32:57;2.53;;;1.90;;
37288;SDS011;23174;49.462;11.000;2024-03-25T01:34:57;2.72;;;1.88;;
37288;SDS011;23174;49.462;11.000;2024-03-25T01:36:58;2.25;;;1.70;;
37288;SDS011;23174;49.462;11.000;2024-03-25T01:38:58;2.65;;;2.08;;
37288;SDS011;23174;49.462;11.000;2024-03-25T01:41:08;2.90;;;1.65;;
37288;SDS011;23174;49.462;11.000;2024-03-25T01:43:09;2.13;;;1.67;;
37288;SDS011;23174;49.462;11.000;2024-03-25T01:45:10;2.15;;;1.70;;
37288;SDS011;23174;49.462;11.000;2024-03-25T01:47:12;3.05;;;1.92;;
37288;SDS011;23174;49.462;11.000;2024-03-25T01:49:13;1.98;;;1.80;;
37288;SDS011;23174;49.462;11.000;2024-03-25T01:51:14;3.30;;;2.45;;
37288;SDS011;23174;49.462;11.000;2024-03-25T01:53:17;3.15;;;1.67;;
37288;SDS011;23174;49.462;11.000;2024-03-25T01:55:18;1.70;;;1.52;;
37288;SDS011;23174;49.462;11.000;2024-03-25T01:57:22;4.22;;;1.80;;
37288;SDS011;23174;49.462;11.000;2024-03-25T01:59:23;2.50;;;1.70;;
37288;SDS011;23174;49.462;11.000;2024-03-25T02:01:24;2.88;;;1.90;;
37288;SDS011;23174;49.462;11.000;2024-03-25T02:03:25;2.75;;;1.48;;
37288;SDS011;23174;49.462;11.000;2024-03-25T02:05:25;2.67;;;1.88;;
37288;SDS011;23174;49.462;11.000;2024-03-25T02:07:26;1.95;;;1.80;;
37288;SDS011;23174;49.462;11.000;2024-03-25T02:09:28;2.10;;;1.55;;
37288;SDS011;23174;49.462;11.000;2024-03-25T02:11:28;1.98;;;1.60;;
37288;SDS011;23174;49.462;11.000;2024-03-25T02:13:30;3.00;;;1.98;;
37288;SDS011;23174;49.462;11.000;2024-03-25T02:15:30;3.10;;;2.00;;
37288;SDS011;23174;49.462;11.000;2024-03-25T02:17:31;2.10;;;1.63;;
37288;SDS011;23174;49.462;11.000;2024-03-25T02:19:31;2.20;;;1.67;;
37288;SDS011;23174;49.462;11.000;2024-03-25T02:21:33;2.45;;;1.85;;
37288;SDS011;23174;49.462;11.000;2024-03-25T02:23:33;2.88;;;1.60;;
37288;SDS011;23174;49.462;11.000;2024-03-25T02:25:34;2.00;;;1.83;;
37288;SDS011;23174;49.462;11.000;2024-03-25T02:27:35;2.95;;;1.52;;
37288;SDS011;23174;49.462;11.000;2024-03-25T02:29:37;2.47;;;1.67;;
37288;SDS011;23174;49.462;11.000;2024-03-25T02:31:37;2.20;;;1.73;;
37288;SDS011;23174;49.462;11.000;2024-03-25T02:33:38;2.38;;;1.80;;
37288;SDS011;23174;49.462;11.000;2024-03-25T02:35:39;3.25;;;2.35;;
37288;SDS011;23174;49.462;11.000;2024-03-25T02:37:41;3.92;;;1.80;;
37288;SDS011;23174;49.462;11.000;2024-03-25T02:39:41;3.40;;;1.80;;
37288;SDS011;23174;49.462;11.000;2024-03-25T02:41:42;2.33;;;1.88;;
37288;SDS011;23174;49.462;11.000;2024-03-25T02:43:42;3.47;;;1.65;;
37288;SDS011;23174;49.462;11.000;2024-03-25T02:45:43;3.35;;;2.03;;
37288;SDS011;23174;49.462;11.000;2024-03-25T02:47:43;3.75;;;1.80;;
37288;SDS011;23174;49.462;11.000;2024-03-25T02:49:45;2.20;;;2.00;;
37288;SDS011;23174;49.462;11.000;2024-03-25T02:51:46;3.70;;;1.98;;
37288;SDS011;23174;49.462;11.000;2024-03-25T02:53:46;1.75;;;1.63;;
37288;SDS011;23174;49.462;11.000;2024-03-25T02:55:47;3.33;;;1.85;;
37288;SDS011;23174;49.462;11.000;2024-03-25T02:57:47;3.55;;;2.03;;
37288;SDS011;23174;49.462;11.000;2024-03-25T02:59:47;2.17;;;1.85;;
37288;SDS011;23174;49.462;11.000;2024-03-25T03:01:48;2.08;;;1.83;;
37288;SDS011;23174;49.462;11.000;2024-03-25T03:03:48;2.58;;;1.92;;
37288;SDS011;23174;49.462;11.000;2024-03-25T03:05:49;2.38;;;2.15;;
37288;SDS011;23174;49.462;11.000;2024-03-25T03:07:49;3.38;;;1.73;;
37288;SDS011;23174;49.462;11.000;2024-03-25T03:09:50;2.67;;;1.92;;
37288;SDS011;23174;49.462;11.000;2024-03-25T03:11:50;3.30;;;1.88;;
37288;SDS011;23174;49.462;11.000;2024-03-25T03:13:51;3.17;;;2.40;;
37288;SDS011;23174;49.462;11.000;2024-03-25T03:15:51;2.67;;;2.40;;
37288;SDS011;23174;49.462;11.000;2024-03-25T03:17:52;3.47;;;2.20;;
37288;SDS011;23174;49.462;11.000;2024-03-25T03:19:52;3.22;;;2.13;;
37288;SDS011;23174;49.462;11.000;2024-03-25T03:21:53;2.42;;;2.22;;
37288;SDS011;23174;49.462;11.000;2024-03-25T03:23:53;2.88;;;2.10;;
37288;SDS011;23174;49.462;11.000;2024-03-25T03:25:54;2.63;;;1.98;;
37288;SDS011;23174;49.462;11.000;2024-03-25T03:27:55;4.43;;;2.35;;
37288;SDS011;23174;49.462;11.000;2024-03-25T03:29:56;2.35;;;2.15;;
37288;SDS011;23174;49.462;11.000;2024-03-25T03:31:57;3.42;;;2.42;;
37288;SDS011;23174;49.462;11.000;2024-03-25T03:33:57;2.58;;;2.25;;
37288;SDS011;23174;49.462;11.000;2024-03-25T03:35:58;3.30;;;2.25;;
37288;SDS011;23174;49.462;11.000;2024-03-25T03:37:58;3.22;;;2.03;;
37288;SDS011;23174;49.462;11.000;2024-03-25T03:39:58;3.78;;;2.30;;
37288;SDS011;23174;49.462;11.000;2024-03-25T03:41:59;3.13;;;1.98;;
37288;SDS011;23174;49.462;11.000;2024-03-25T03:43:59;2.92;;;2.10;;
37288;SDS011;23174;49.462;11.000;2024-03-25T03:46:00;2.28;;;2.08;;
37288;SDS011;23174;49.462;11.000;2024-03-25T03:48:01;4.00;;;2.10;;
37288;SDS011;23174;49.462;11.000;2024-03-25T03:50:02;3.30;;;2.35;;
37288;SDS011;23174;49.462;11.000;2024-03-25T03:52:03;3.42;;;2.33;;
37288;SDS011;23174;49.462;11.000;2024-03-25T03:54:04;2.75;;;2.50;;
37288;SDS011;23174;49.462;11.000;2024-03-25T03:56:04;2.42;;;1.90;;
37288;SDS011;23174;49.462;11.000;2024-03-25T03:58:09;2.42;;;2.08;;
37288;SDS011;23174;49.462;11.000;2024-03-25T04:00:09;4.00;;;2.75;;
37288;SDS011;23174;49.462;11.000;2024-03-25T04:02:14;3.05;;;2.15;;
37288;SDS011;23174;49.462;11.000;2024-03-25T04:04:14;3.25;;;2.55;;
37288;SDS011;23174;49.462;11.000;2024-03-25T04:06:15;3.40;;;2.67;;
37288;SDS011;23174;49.462;11.000;2024-03-25T04:08:16;3.55;;;1.90;;
37288;SDS011;23174;49.462;11.000;2024-03-25T04:10:16;2.30;;;2.10;;
37288;SDS011;23174;49.462;11.000;2024-03-25T04:12:17;5.72;;;2.65;;
37288;SDS011;23174;49.462;11.000;2024-03-25T04:14:19;4.47;;;2.60;;
37288;SDS011;23174;49.462;11.000;2024-03-25T04:16:19;5.30;;;2.50;;
37288;SDS011;23174;49.462;11.000;2024-03-25T04:18:21;2.45;;;2.20;;
37288;SDS011;23174;49.462;11.000;2024-03-25T04:20:21;4.97;;;2.50;;
37288;SDS011;23174;49.462;11.000;2024-03-25T04:22:22;2.78;;;2.20;;
37288;SDS011;23174;49.462;11.000;2024-03-25T04:24:22;6.57;;;2.30;;
37288;SDS011;23174;49.462;11.000;2024-03-25T04:26:23;3.97;;;2.40;;
37288;SDS011;23174;49.462;11.000;2024-03-25T04:28:24;5.72;;;2.75;;
37288;SDS011;23174;49.462;11.000;2024-03-25T04:30:24;3.13;;;2.58;;
37288;SDS011;23174;49.462;11.000;2024-03-25T04:32:25;3.60;;;2.25;;
37288;SDS011;23174;49.462;11.000;2024-03-25T04:34:25;2.95;;;2.47;;
37288;SDS011;23174;49.462;11.000;2024-03-25T04:36:26;2.40;;;2.20;;
37288;SDS011;23174;49.462;11.000;2024-03-25T04:38:26;4.43;;;2.47;;
37288;SDS011;23174;49.462;11.000;2024-03-25T04:40:27;3.80;;;2.17;;
37288;SDS011;23174;49.462;11.000;2024-03-25T04:42:27;5.38;;;3.00;;
37288;SDS011;23174;49.462;11.000;2024-03-25T04:44:28;4.78;;;2.88;;
37288;SDS011;23174;49.462;11.000;2024-03-25T04:46:28;3.05;;;2.70;;
37288;SDS011;23174;49.462;11.000;2024-03-25T04:48:29;3.03;;;2.28;;
37288;SDS011;23174;49.462;11.000;2024-03-25T04:50:30;3.15;;;2.40;;
37288;SDS011;23174;49.462;11.000;2024-03-25T04:52:30;3.50;;;2.33;;
37288;SDS011;23174;49.462;11.000;2024-03-25T04:54:31;3.75;;;2.50;;
37288;SDS011;23174;49.462;11.000;2024-03-25T04:56:32;4.47;;;3.25;;
37288;SDS011;23174;49.462;11.000;2024-03-25T04:58:33;3.38;;;2.60;;
37288;SDS011;23174;49.462;11.000;2024-03-25T05:00:33;3.80;;;2.47;;
37288;SDS011;23174;49.462;11.000;2024-03-25T05:02:34;3.53;;;2.45;;
37288;SDS011;23174;49.462;11.000;2024-03-25T05:04:36;3.28;;;2.55;;
37288;SDS011;23174;49.462;11.000;2024-03-25T05:06:37;6.68;;;2.85;;
37288;SDS011;23174;49.462;11.000;2024-03-25T05:08:37;2.83;;;2.00;;
37288;SDS011;23174;49.462;11.000;2024-03-25T05:10:38;5.82;;;2.53;;
37288;SDS011;23174;49.462;11.000;2024-03-25T05:12:38;4.22;;;2.60;;
37288;SDS011;23174;49.462;11.000;2024-03-25T05:14:38;3.03;;;2.40;;
37288;SDS011;23174;49.462;11.000;2024-03-25T05:16:39;4.43;;;2.50;;
37288;SDS011;23174;49.462;11.000;2024-03-25T05:18:39;2.97;;;2.20;;
37288;SDS011;23174;49.462;11.000;2024-03-25T05:20:40;5.15;;;2.78;;
37288;SDS011;23174;49.462;11.000;2024-03-25T05:22:40;4.53;;;2.40;;
37288;SDS011;23174;49.462;11.000;2024-03-25T05:24:41;3.75;;;2.50;;
37288;SDS011;23174;49.462;11.000;2024-03-25T05:26:41;3.88;;;2.63;;
37288;SDS011;23174;49.462;11.000;2024-03-25T05:28:42;5.57;;;2.78;;
37288;SDS011;23174;49.462;11.000;2024-03-25T05:30:42;2.63;;;2.40;;
37288;SDS011;23174;49.462;11.000;2024-03-25T05:32:43;3.33;;;2.50;;
37288;SDS011;23174;49.462;11.000;2024-03-25T05:34:43;2.72;;;2.20;;
37288;SDS011;23174;49.462;11.000;2024-03-25T05:36:43;2.45;;;2.25;;
37288;SDS011;23174;49.462;11.000;2024-03-25T05:38:44;3.38;;;2.65;;
37288;SDS011;23174;49.462;11.000;2024-03-25T05:40:45;4.28;;;3.13;;
37288;SDS011;23174;49.462;11.000;2024-03-25T05:42:45;4.65;;;2.45;;
37288;SDS011;23174;49.462;11.000;2024-03-25T05:44:45;6.32;;;3.10;;
37288;SDS011;23174;49.462;11.000;2024-03-25T05:46:46;4.13;;;3.05;;
37288;SDS011;23174;49.462;11.000;2024-03-25T05:48:46;2.90;;;2.22;;
37288;SDS011;23174;49.462;11.000;2024-03-25T05:50:56;5.03;;;2.40;;
37288;SDS011;23174;49.462;11.000;2024-03-25T05:53:00;3.10;;;2.30;;
37288;SDS011;23174;49.462;11.000;2024-03-25T05:55:02;5.50;;;2.83;;
37288;SDS011;23174;49.462;11.000;2024-03-25T05:57:02;2.05;;;1.95;;
37288;SDS011;23174;49.462;11.000;2024-03-25T05:59:03;4.82;;;2.40;;
37288;SDS011;23174;49.462;11.000;2024-03-25T06:01:04;2.72;;;2.53;;
37288;SDS011;23174;49.462;11.000;2024-03-25T06:03:04;5.55;;;3.05;;
37288;SDS011;23174;49.462;11.000;2024-03-25T06:05:05;4.38;;;2.53;;
37288;SDS011;23174;49.462;11.000;2024-03-25T06:07:06;2.92;;;2.42;;
37288;SDS011;23174;49.462;11.000;2024-03-25T06:09:06;2.70;;;2.50;;
37288;SDS011;23174;49.462;11.000;2024-03-25T06:11:07;5.18;;;2.80;;
37288;SDS011;23174;49.462;11.000;2024-03-25T06:13:07;2.88;;;2.60;;
37288;SDS011;23174;49.462;11.000;2024-03-25T06:15:08;3.20;;;2.60;;
37288;SDS011;23174;49.462;11.000;2024-03-25T06:17:08;3.92;;;2.67;;
37288;SDS011;23174;49.462;11.000;2024-03-25T06:19:09;4.90;;;2.40;;
37288;SDS011;23174;49.462;11.000;2024-03-25T06:21:09;2.67;;;2.05;;
37288;SDS011;23174;49.462;11.000;2024-03-25T06:23:10;5.82;;;2.78;;
37288;SDS011;23174;49.462;11.000;2024-03-25T06:25:10;5.00;;;2.80;;
37288;SDS011;23174;49.462;11.000;2024-03-25T06:27:11;3.42;;;2.00;;
37288;SDS011;23174;49.462;11.000;2024-03-25T06:29:11;2.33;;;2.10;;
37288;SDS011;23174;49.462;11.000;2024-03-25T06:31:12;4.03;;;2.65;;
37288;SDS011;23174;49.462;11.000;2024-03-25T06:33:31;6.45;;;2.80;;
37288;SDS011;23174;49.462;11.000;2024-03-25T06:35:50;4.28;;;2.60;;
37288;SDS011;23174;49.462;11.000;2024-03-25T06:37:52;2.63;;;2.10;;
37288;SDS011;23174;49.462;11.000;2024-03-25T06:39:52;4.28;;;2.47;;
37288;SDS011;23174;49.462;11.000;2024-03-25T06:41:53;3.55;;;2.08;;
37288;SDS011;23174;49.462;11.000;2024-03-25T06:43:53;4.85;;;2.38;;
37288;SDS011;23174;49.462;11.000;2024-03-25T06:45:54;3.00;;;2.30;;
37288;SDS011;23174;49.462;11.000;2024-03-25T06:47:54;3.67;;;2.35;;
37288;SDS011;23174;49.462;11.000;2024-03-25T06:49:55;3.13;;;2.63;;
37288;SDS011;23174;49.462;11.000;2024-03-25T06:51:56;4.97;;;2.75;;
37288;SDS011;23174;49.462;11.000;2024-03-25T06:53:57;4.40;;;2.28;;
37288;SDS011;23174;49.462;11.000;2024-03-25T06:55:59;4.63;;;2.25;;
37288;SDS011;23174;49.462;11.000;2024-03-25T06:58:00;3.47;;;2.50;;
37288;SDS011;23174;49.462;11.000;2024-03-25T07:00:00;3.08;;;1.90;;
37288;SDS011;23174;49.462;11.000;2024-03-25T07:02:00;3.50;;;2.30;;
37288;SDS011;23174;49.462;11.000;2024-03-25T07:04:01;5.50;;;2.65;;
37288;SDS011;23174;49.462;11.000;2024-03-25T07:06:03;4.28;;;2.88;;
37288;SDS011;23174;49.462;11.000;2024-03-25T07:08:03;3.55;;;2.53;;
37288;SDS011;23174;49.462;11.000;2024-03-25T07:10:05;2.88;;;2.20;;
37288;SDS011;23174;49.462;11.000;2024-03-25T07:12:06;3.15;;;1.92;;
37288;SDS011;23174;49.462;11.000;2024-03-25T07:14:07;2.25;;;2.05;;
37288;SDS011;23174;49.462;11.000;2024-03-25T07:16:07;8.80;;;2.30;;
37288;SDS011;23174;49.462;11.000;2024-03-25T07:18:08;4.45;;;2.28;;
37288;SDS011;23174;49.462;11.000;2024-03-25T07:20:10;4.45;;;2.55;;
37288;SDS011;23174;49.462;11.000;2024-03-25T07:22:11;5.30;;;2.15;;
37288;SDS011;23174;49.462;11.000;2024-03-25T07:24:11;2.78;;;1.80;;
37288;SDS011;23174;49.462;11.000;2024-03-25T07:26:12;3.90;;;1.88;;
37288;SDS011;23174;49.462;11.000;2024-03-25T07:28:12;4.53;;;2.15;;
37288;SDS011;23174;49.462;11.000;2024-03-25T07:30:13;3.13;;;1.90;;
37288;SDS011;23174;49.462;11.000;2024-03-25T07:32:13;2.45;;;1.63;;
37288;SDS011;23174;49.462;11.000;2024-03-25T07:34:14;2.70;;;1.63;;
37288;SDS011;23174;49.462;11.000;2024-03-25T07:36:14;5.25;;;2.00;;
37288;SDS011;23174;49.462;11.000;2024-03-25T07:38:14;3.53;;;1.60;;
37288;SDS011;23174;49.462;11.000;2024-03-25T07:40:15;2.25;;;1.50;;
37288;SDS011;23174;49.462;11.000;2024-03-25T07:42:16;5.07;;;1.90;;
37288;SDS011;23174;49.462;11.000;2024-03-25T07:44:16;4.32;;;1.80;;
37288;SDS011;23174;49.462;11.000;2024-03-25T07:46:17;3.08;;;1.80;;
37288;SDS011;23174;49.462;11.000;2024-03-25T07:48:18;3.92;;;2.30;;
37288;SDS011;23174;49.462;11.000;2024-03-25T07:50:18;5.25;;;2.10;;
37288;SDS011;23174;49.462;11.000;2024-03-25T07:52:20;3.60;;;1.60;;
37288;SDS011;23174;49.462;11.000;2024-03-25T07:54:20;6.07;;;2.05;;
37288;SDS011;23174;49.462;11.000;2024-03-25T07:56:21;2.38;;;1.50;;
37288;SDS011;23174;49.462;11.000;2024-03-25T07:58:21;3.83;;;1.90;;
37288;SDS011;23174;49.462;11.000;2024-03-25T08:00:22;3.30;;;1.85;;
37288;SDS011;23174;49.462;11.000;2024-03-25T08:02:22;1.40;;;1.27;;
37288;SDS011;23174;49.462;11.000;2024-03-25T08:04:23;3.15;;;1.70;;
37288;SDS011;23174;49.462;11.000;2024-03-25T08:06:23;5.05;;;1.88;;
37288;SDS011;23174;49.462;11.000;2024-03-25T08:08:24;4.95;;;1.40;;
37288;SDS011;23174;49.462;11.000;2024-03-25T08:10:24;5.43;;;1.70;;
37288;SDS011;23174;49.462;11.000;2024-03-25T08:12:25;5.28;;;2.03;;
37288;SDS011;23174;49.462;11.000;2024-03-25T08:14:25;4.63;;;2.03;;
37288;SDS011;23174;49.462;11.000;2024-03-25T08:16:26;3.72;;;1.70;;
37288;SDS011;23174;49.462;11.000;2024-03-25T08:18:26;4.53;;;1.90;;
37288;SDS011;23174;49.462;11.000;2024-03-25T08:20:27;3.35;;;1.52;;
37288;SDS011;23174;49.462;11.000;2024-03-25T08:22:27;2.50;;;1.60;;
37288;SDS011;23174;49.462;11.000;2024-03-25T08:24:28;3.95;;;1.55;;
37288;SDS011;23174;49.462;11.000;2024-03-25T08:26:29;4.30;;;1.92;;
37288;SDS011;23174;49.462;11.000;2024-03-25T08:28:29;3.92;;;1.55;;
37288;SDS011;23174;49.462;11.000;2024-03-25T08:30:30;2.72;;;1.63;;
37288;SDS011;23174;49.462;11.000;2024-03-25T08:32:30;2.97;;;1.58;;
37288;SDS011;23174;49.462;11.000;2024-03-25T08:34:32;2.58;;;1.52;;
37288;SDS011;23174;49.462;11.000;2024-03-25T08:36:33;3.22;;;1.70;;
37288;SDS011;23174;49.462;11.000;2024-03-25T08:38:33;4.32;;;2.30;;
37288;SDS011;23174;49.462;11.000;2024-03-25T08:40:34;2.58;;;1.38;;
37288;SDS011;23174;49.462;11.000;2024-03-25T08:42:34;5.28;;;1.83;;
37288;SDS011;23174;49.462;11.000;2024-03-25T08:44:35;4.03;;;1.90;;
37288;SDS011;23174;49.462;11.000;2024-03-25T08:46:35;2.58;;;1.50;;
37288;SDS011;23174;49.462;11.000;2024-03-25T08:48:37;4.95;;;1.52;;
37288;SDS011;23174;49.462;11.000;2024-03-25T08:50:38;3.75;;;1.77;;
37288;SDS011;23174;49.462;11.000;2024-03-25T08:52:38;2.35;;;1.50;;
37288;SDS011;23174;49.462;11.000;2024-03-25T08:54:39;3.65;;;1.75;;
37288;SDS011;23174;49.462;11.000;2024-03-25T08:56:40;2.88;;;1.52;;
37288;SDS011;23174;49.462;11.000;2024-03-25T08:58:40;2.60;;;1.90;;
37288;SDS011;23174;49.462;11.000;2024-03-25T09:00:41;2.35;;;1.63;;
37288;SDS011;23174;49.462;11.000;2024-03-25T09:02:42;4.10;;;1.65;;
37288;SDS011;23174;49.462;11.000;2024-03-25T09:04:43;3.13;;;1.50;;
37288;SDS011;23174;49.462;11.000;2024-03-25T09:06:44;3.72;;;1.67;;
37288;SDS011;23174;49.462;11.000;2024-03-25T09:08:44;3.85;;;1.90;;
37288;SDS011;23174;49.462;11.000;2024-03-25T09:11:03;2.70;;;1.80;;
37288;SDS011;23174;49.462;11.000;2024-03-25T09:13:06;4.80;;;1.90;;
37288;SDS011;23174;49.462;11.000;2024-03-25T09:15:08;6.25;;;2.50;;
37288;SDS011;23174;49.462;11.000;2024-03-25T09:17:09;3.10;;;1.98;;
37288;SDS011;23174;49.462;11.000;2024-03-25T09:19:10;2.30;;;1.48;;
37288;SDS011;23174;49.462;11.000;2024-03-25T09:21:10;2.90;;;1.67;;
37288;SDS011;23174;49.462;11.000;2024-03-25T09:23:11;3.28;;;1.38;;
37288;SDS011;23174;49.462;11.000;2024-03-25T09:25:11;1.50;;;0.98;;
37288;SDS011;23174;49.462;11.000;2024-03-25T09:27:12;3.30;;;1.50;;
37288;SDS011;23174;49.462;11.000;2024-03-25T09:29:14;1.48;;;1.20;;
37288;SDS011;23174;49.462;11.000;2024-03-25T09:31:14;2.85;;;2.03;;
37288;SDS011;23174;49.462;11.000;2024-03-25T09:33:15;4.07;;;1.73;;
37288;SDS011;23174;49.462;11.000;2024-03-25T09:35:15;2.58;;;1.60;;
37288;SDS011;23174;49.462;11.000;2024-03-25T09:37:16;5.03;;;1.80;;
37288;SDS011;23174;49.462;11.000;2024-03-25T09:39:16;3.70;;;1.75;;
37288;SDS011;23174;49.462;11.000;2024-03-25T09:41:17;2.00;;;1.70;;
37288;SDS011;23174;49.462;11.000;2024-03-25T09:43:24;2.85;;;1.80;;
37288;SDS011;23174;49.462;11.000;2024-03-25T09:45:30;2.80;;;1.70;;
37288;SDS011;23174;49.462;11.000;2024-03-25T09:47:33;3.80;;;1.60;;
37288;SDS011;23174;49.462;11.000;2024-03-25T09:49:34;4.57;;;1.70;;
37288;SDS011;23174;49.462;11.000;2024-03-25T09:51:35;2.38;;;1.67;;
37288;SDS011;23174;49.462;11.000;2024-03-25T09:53:36;2.10;;;1.75;;
37288;SDS011;23174;49.462;11.000;2024-03-25T09:55:36;4.15;;;2.03;;
37288;SDS011;23174;49.462;11.000;2024-03-25T09:57:37;4.03;;;2.08;;
37288;SDS011;23174;49.462;11.000;2024-03-25T09:59:39;3.17;;;2.10;;
37288;SDS011;23174;49.462;11.000;2024-03-25T10:01:39;2.90;;;1.75;;
37288;SDS011;23174;49.462;11.000;2024-03-25T10:03:40;2.25;;;1.33;;
37288;SDS011;23174;49.462;11.000;2024-03-25T10:05:40;2.88;;;1.60;;
37288;SDS011;23174;49.462;11.000;2024-03-25T10:07:41;3.40;;;2.00;;
37288;SDS011;23174;49.462;11.000;2024-03-25T10:09:42;2.83;;;1.77;;
37288;SDS011;23174;49.462;11.000;2024-03-25T10:11:43;4.35;;;1.90;;
37288;SDS011;23174;49.462;11.000;2024-03-25T10:13:43;7.28;;;2.13;;
37288;SDS011;23174;49.462;11.000;2024-03-25T10:15:46;4.68;;;1.92;;
37288;SDS011;23174;49.462;11.000;2024-03-25T10:17:50;2.90;;;2.08;;
37288;SDS011;23174;49.462;11.000;2024-03-25T10:19:55;3.40;;;1.92;;
37288;SDS011;23174;49.462;11.000;2024-03-25T10:22:04;3.55;;;1.85;;
37288;SDS011;23174;49.462;11.000;2024-03-25T10:24:06;2.63;;;1.70;;
37288;SDS011;23174;49.462;11.000;2024-03-25T10:26:06;5.30;;;2.45;;
37288;SDS011;23174;49.462;11.000;2024-03-25T10:28:08;3.40;;;1.90;;
37288;SDS011;23174;49.462;11.000;2024-03-25T10:30:08;2.63;;;1.77;;
37288;SDS011;23174;49.462;11.000;2024-03-25T10:32:09;2.90;;;1.63;;
37288;SDS011;23174;49.462;11.000;2024-03-25T10:34:10;3.10;;;1.85;;
37288;SDS011;23174;49.462;11.000;2024-03-25T10:36:10;2.60;;;1.85;;
37288;SDS011;23174;49.462;11.000;2024-03-25T10:38:11;3.28;;;1.75;;
37288;SDS011;23174;49.462;11.000;2024-03-25T10:40:16;3.60;;;1.60;;
37288;SDS011;23174;49.462;11.000;2024-03-25T10:42:20;4.13;;;1.75;;
37288;SDS011;23174;49.462;11.000;2024-03-25T10:44:23;6.20;;;1.75;;
37288;SDS011;23174;49.462;11.000;2024-03-25T10:46:24;4.13;;;2.08;;
37288;SDS011;23174;49.462;11.000;2024-03-25T10:48:26;4.00;;;1.67;;
37288;SDS011;23174;49.462;11.000;2024-03-25T10:50:28;5.18;;;1.73;;
37288;SDS011;23174;49.462;11.000;2024-03-25T10:52:29;2.97;;;1.65;;
37288;SDS011;23174;49.462;11.000;2024-03-25T10:54:32;2.22;;;1.30;;
37288;SDS011;23174;49.462;11.000;2024-03-25T10:56:34;2.53;;;1.98;;
37288;SDS011;23174;49.462;11.000;2024-03-25T10:58:36;2.13;;;1.40;;
37288;SDS011;23174;49.462;11.000;2024-03-25T11:00:37;1.90;;;1.40;;
37288;SDS011;23174;49.462;11.000;2024-03-25T11:02:38;2.50;;;1.10;;
37288;SDS011;23174;49.462;11.000;2024-03-25T11:04:38;3.30;;;1.70;;
37288;SDS011;23174;49.462;11.000;2024-03-25T11:06:43;4.57;;;1.33;;
37288;SDS011;23174;49.462;11.000;2024-03-25T11:08:43;1.88;;;1.50;;
37288;SDS011;23174;49.462;11.000;2024-03-25T11:10:47;2.38;;;1.27;;
37288;SDS011;23174;49.462;11.000;2024-03-25T11:12:49;3.33;;;1.23;;
37288;SDS011;23174;49.462;11.000;2024-03-25T11:14:56;1.30;;;1.20;;
37288;SDS011;23174;49.462;11.000;2024-03-25T11:16:57;3.53;;;2.08;;
37288;SDS011;23174;49.462;11.000;2024-03-25T11:19:04;2.90;;;1.75;;
37288;SDS011;23174;49.462;11.000;2024-03-25T11:21:07;2.78;;;1.40;;
37288;SDS011;23174;49.462;11.000;2024-03-25T11:23:12;2.00;;;1.33;;
37288;SDS011;23174;49.462;11.000;2024-03-25T11:25:13;2.50;;;1.52;;
37288;SDS011;23174;49.462;11.000;2024-03-25T11:27:14;3.17;;;1.67;;
37288;SDS011;23174;49.462;11.000;2024-03-25T11:29:14;3.00;;;1.50;;
37288;SDS011;23174;49.462;11.000;2024-03-25T11:31:15;2.75;;;1.48;;
37288;SDS011;23174;49.462;11.000;2024-03-25T11:33:16;3.05;;;1.70;;
37288;SDS011;23174;49.462;11.000;2024-03-25T11:35:18;2.63;;;1.73;;
37288;SDS011;23174;49.462;11.000;2024-03-25T11:37:19;2.13;;;1.50;;
37288;SDS011;23174;49.462;11.000;2024-03-25T11:39:19;3.55;;;1.45;;
37288;SDS011;23174;49.462;11.000;2024-03-25T11:41:20;2.97;;;1.60;;
37288;SDS011;23174;49.462;11.000;2024-03-25T11:43:21;4.07;;;1.42;;
37288;SDS011;23174;49.462;11.000;2024-03-25T11:45:22;1.65;;;1.48;;
37288;SDS011;23174;49.462;11.000;2024-03-25T11:47:25;1.88;;;1.20;;
37288;SDS011;23174;49.462;11.000;2024-03-25T11:49:26;1.23;;;1.10;;
37288;SDS011;23174;49.462;11.000;2024-03-25T11:51:27;1.77;;;1.20;;
37288;SDS011;23174;49.462;11.000;2024-03-25T11:53:29;1.75;;;1.30;;
37288;SDS011;23174;49.462;11.000;2024-03-25T11:55:30;2.30;;;1.35;;
37288;SDS011;23174;49.462;11.000;2024-03-25T11:57:30;2.15;;;1.40;;